createdAt,value
2022-10-13T00:01:09.780Z,99911.60
2022-10-13T00:03:38.995Z,99909.40
2022-10-13T00:06:10.766Z,99912.80
2022-10-13T00:08:38.389Z,99906.60
2022-10-13T00:11:31.076Z,99908.40
2022-10-13T00:14:02.163Z,99903.00
2022-10-13T00:16:30.913Z,99902.60
2022-10-13T00:18:57.669Z,99905.80
2022-10-13T00:21:27.251Z,99908.40
2022-10-13T00:23:55.282Z,99912.00
2022-10-13T00:26:25.075Z,99903.40
2022-10-13T00:28:52.996Z,99903.80
2022-10-13T00:31:24.692Z,99898.80
2022-10-13T00:33:52.888Z,99897.20
2022-10-13T00:36:22.575Z,99897.80
2022-10-13T00:38:49.496Z,99896.00
2022-10-13T00:41:16.091Z,99894.40
2022-10-13T00:43:53.808Z,99895.20
2022-10-13T00:46:22.689Z,99891.60
2022-10-13T00:48:51.427Z,99886.60
2022-10-13T00:51:24.155Z,99895.20
2022-10-13T00:53:52.466Z,99893.40
2022-10-13T00:56:21.347Z,99898.40
2022-10-13T00:58:49.033Z,99893.00
2022-10-13T01:01:16.144Z,99895.40
2022-10-13T01:03:42.579Z,99892.00
2022-10-13T01:06:09.977Z,99888.40
2022-10-13T01:08:36.861Z,99886.60
2022-10-13T01:11:25.334Z,99880.60
2022-10-13T01:14:26.087Z,99882.20
2022-10-13T01:17:12.151Z,99878.40
2022-10-13T01:20:03.801Z,99885.00
2022-10-13T01:23:23.076Z,99879.40
2022-10-13T01:26:31.640Z,99873.60
2022-10-13T01:29:29.382Z,99877.00
2022-10-13T01:32:14.144Z,99870.20
2022-10-13T01:34:55.605Z,99862.20
2022-10-13T01:37:32.832Z,99855.80
2022-10-13T01:40:39.721Z,99855.20
2022-10-13T01:43:24.861Z,99852.00
2022-10-13T01:46:00.692Z,99849.00
2022-10-13T01:48:28.613Z,99849.20
2022-10-13T01:50:59.805Z,99838.80
2022-10-13T01:53:27.811Z,99833.40
2022-10-13T01:55:59.370Z,99831.20
2022-10-13T01:58:32.812Z,99832.80
2022-10-13T02:01:09.914Z,99829.40
2022-10-13T02:04:06.784Z,99832.60
2022-10-13T02:07:18.432Z,99829.80
2022-10-13T02:10:01.730Z,99826.80
2022-10-13T02:13:40.768Z,99821.40
2022-10-13T02:16:08.071Z,99818.20
2022-10-13T02:18:36.070Z,99814.00
2022-10-13T02:21:04.312Z,99815.80
2022-10-13T02:23:31.575Z,99810.40
2022-10-13T02:25:59.919Z,99809.20
2022-10-13T02:28:28.346Z,99807.00
2022-10-13T02:30:56.743Z,99803.20
2022-10-13T02:33:23.195Z,99805.00
2022-10-13T02:35:49.743Z,99800.20
2022-10-13T02:38:16.135Z,99797.40
2022-10-13T02:40:42.669Z,99799.40
2022-10-13T02:43:09.049Z,99806.40
2022-10-13T02:45:35.433Z,99805.20
2022-10-13T02:48:01.913Z,99805.00
2022-10-13T02:50:28.972Z,99808.20
2022-10-13T02:52:55.535Z,99810.80
2022-10-13T02:55:22.003Z,99810.40
2022-10-13T02:57:48.536Z,99817.20
2022-10-13T03:00:16.568Z,99814.40
2022-10-13T03:02:43.592Z,99807.20
2022-10-13T03:05:10.764Z,99802.20
2022-10-13T03:07:37.914Z,99799.00
2022-10-13T03:10:05.671Z,99797.40
2022-10-13T03:12:32.462Z,99798.60
2022-10-13T03:14:58.926Z,99797.00
2022-10-13T03:17:25.774Z,99800.40
2022-10-13T03:19:52.217Z,99796.60
2022-10-13T03:22:18.926Z,99795.20
2022-10-13T03:24:46.068Z,99792.40
2022-10-13T03:27:12.593Z,99795.60
2022-10-13T03:29:39.098Z,99798.40
2022-10-13T03:32:05.559Z,99796.60
2022-10-13T03:34:32.272Z,99795.00
2022-10-13T03:36:58.662Z,99795.60
2022-10-13T03:39:25.289Z,99797.20
2022-10-13T03:41:51.849Z,99797.40
2022-10-13T03:44:18.252Z,99790.20
2022-10-13T03:46:44.756Z,99798.20
2022-10-13T03:49:12.223Z,99795.40
2022-10-13T03:51:39.024Z,99798.20
2022-10-13T03:54:05.489Z,99799.20
2022-10-13T03:56:31.979Z,99798.40
2022-10-13T03:59:00.455Z,99798.00
2022-10-13T04:01:30.808Z,99794.40
2022-10-13T04:03:59.564Z,99794.00
2022-10-13T04:06:26.884Z,99795.00
2022-10-13T04:08:53.922Z,99794.60
2022-10-13T04:11:21.957Z,99795.00
2022-10-13T04:13:48.731Z,99799.80
2022-10-13T04:16:23.584Z,99798.60
2022-10-13T04:18:53.922Z,99796.80
2022-10-13T04:21:22.340Z,99788.60
2022-10-13T04:23:49.376Z,99796.20
2022-10-13T04:26:22.144Z,99791.60
2022-10-13T04:28:52.501Z,99787.00
2022-10-13T04:31:22.072Z,99796.60
2022-10-13T04:33:49.981Z,99796.00
2022-10-13T04:36:17.877Z,99795.40
2022-10-13T04:38:45.076Z,99797.40
2022-10-13T04:41:15.780Z,99799.60
2022-10-13T04:43:43.073Z,99800.80
2022-10-13T04:46:18.924Z,99802.60
2022-10-13T04:48:47.206Z,99799.40
2022-10-13T04:51:18.788Z,99802.60
2022-10-13T04:53:46.208Z,99803.60
2022-10-13T04:56:16.302Z,99802.60
2022-10-13T04:58:46.387Z,99801.40
2022-10-13T05:01:21.507Z,99801.60
2022-10-13T05:03:58.448Z,99806.80
2022-10-13T05:06:30.044Z,99808.60
2022-10-13T05:08:56.976Z,99804.20
2022-10-13T05:11:25.458Z,99798.60
2022-10-13T05:13:52.832Z,99797.80
2022-10-13T05:16:22.148Z,99797.40
2022-10-13T05:18:51.032Z,99799.40
2022-10-13T05:21:22.316Z,99800.80
2022-10-13T05:23:49.441Z,99801.60
2022-10-13T05:26:18.369Z,99804.60
2022-10-13T05:28:46.383Z,99802.00
2022-10-13T05:31:20.218Z,99801.00
2022-10-13T05:33:48.540Z,99797.60
2022-10-13T05:36:22.012Z,99793.20
2022-10-13T05:38:54.704Z,99795.00
2022-10-13T05:41:23.353Z,99793.40
2022-10-13T05:44:00.414Z,99792.80
2022-10-13T05:46:27.119Z,99796.80
2022-10-13T05:48:53.780Z,99801.40
2022-10-13T05:51:28.110Z,99798.60
2022-10-13T05:54:09.988Z,99802.20
2022-10-13T05:56:47.385Z,99802.40
2022-10-13T05:59:22.263Z,99802.40
2022-10-13T06:01:52.651Z,99808.60
2022-10-13T06:04:30.647Z,99808.20
2022-10-13T06:06:57.344Z,99802.00
2022-10-13T06:09:23.877Z,99805.20
2022-10-13T06:11:50.291Z,99807.60
2022-10-13T06:14:16.707Z,99806.00
2022-10-13T06:16:43.226Z,99812.60
2022-10-13T06:19:09.725Z,99801.80
2022-10-13T06:21:36.178Z,99803.40
2022-10-13T06:24:03.256Z,99804.00
2022-10-13T06:26:30.062Z,99794.60
2022-10-13T06:28:59.486Z,99791.00
2022-10-13T06:31:27.290Z,99789.80
2022-10-13T06:33:54.164Z,99789.20
2022-10-13T06:36:20.718Z,99792.80
2022-10-13T06:38:47.431Z,99794.80
2022-10-13T06:41:14.484Z,99789.40
2022-10-13T06:43:41.470Z,99790.60
2022-10-13T06:46:08.901Z,99787.40
2022-10-13T06:48:35.699Z,99787.60
2022-10-13T06:51:08.157Z,99783.80
2022-10-13T06:53:35.767Z,99778.20
2022-10-13T06:56:06.637Z,99779.20
2022-10-13T06:58:38.075Z,99774.00
2022-10-13T07:01:05.982Z,99771.20
2022-10-13T07:03:33.205Z,99777.80
2022-10-13T07:06:05.685Z,99778.00
2022-10-13T07:08:34.047Z,99778.60
2022-10-13T07:11:15.851Z,99782.20
2022-10-13T07:13:46.631Z,99782.20
2022-10-13T07:16:15.186Z,99779.80
2022-10-13T07:18:41.766Z,99782.00
2022-10-13T07:21:08.212Z,99774.20
2022-10-13T07:23:34.685Z,99770.80
2022-10-13T07:26:01.788Z,99772.20
2022-10-13T07:28:28.473Z,99770.00
2022-10-13T07:30:55.091Z,99763.40
2022-10-13T07:33:22.209Z,99760.80
2022-10-13T07:35:48.643Z,99757.20
2022-10-13T07:38:15.128Z,99754.00
2022-10-13T07:40:41.868Z,99746.20
2022-10-13T07:43:08.305Z,99746.80
2022-10-13T07:45:34.811Z,99744.60
2022-10-13T07:48:01.232Z,99738.00
2022-10-13T07:50:27.684Z,99733.60
2022-10-13T07:52:54.090Z,99728.00
2022-10-13T07:55:20.569Z,99726.80
2022-10-13T07:57:46.950Z,99721.00
2022-10-13T08:00:13.912Z,99718.80
2022-10-13T08:02:40.481Z,99717.60
2022-10-13T08:05:07.513Z,99716.00
2022-10-13T08:07:33.918Z,99707.60
2022-10-13T08:10:00.348Z,99704.80
2022-10-13T08:12:26.809Z,99706.80
2022-10-13T08:14:53.689Z,99703.20
2022-10-13T08:17:20.366Z,99706.00
2022-10-13T08:19:47.172Z,99701.40
2022-10-13T08:22:14.335Z,99696.40
2022-10-13T08:24:40.810Z,99694.00
2022-10-13T08:27:13.644Z,99697.00
2022-10-13T08:29:40.302Z,99695.80
2022-10-13T08:32:06.913Z,99696.40
2022-10-13T08:34:34.233Z,99697.00
2022-10-13T08:37:00.669Z,99694.60
2022-10-13T08:39:27.407Z,99701.20
2022-10-13T08:41:56.531Z,99702.80
2022-10-13T08:47:47.472Z,99696.20
2022-10-13T08:50:19.091Z,99692.60
2022-10-13T08:52:53.795Z,99694.20
2022-10-13T08:55:43.764Z,99688.80
2022-10-13T08:58:22.534Z,99688.20
2022-10-13T09:01:06.682Z,99684.40
2022-10-13T09:03:57.418Z,99684.80
2022-10-13T09:06:36.371Z,99681.00
2022-10-13T09:09:10.749Z,99684.80
2022-10-13T09:11:41.805Z,99685.60
2022-10-13T09:14:12.891Z,99682.80
2022-10-13T09:16:44.144Z,99681.20
2022-10-13T09:19:38.765Z,99682.20
2022-10-13T09:22:34.708Z,99669.00
2022-10-13T09:25:06.908Z,99665.40
2022-10-13T09:28:00.817Z,99667.20
2022-10-13T09:30:36.563Z,99661.80
2022-10-13T09:33:09.223Z,99661.20
2022-10-13T09:36:13.544Z,99658.60
2022-10-13T09:38:44.775Z,99656.20
2022-10-13T09:41:21.920Z,99650.00
2022-10-13T09:43:48.415Z,99645.00
2022-10-13T09:46:32.984Z,99641.20
2022-10-13T09:49:07.197Z,99640.40
2022-10-13T09:51:39.537Z,99638.40
2022-10-13T09:54:33.572Z,99640.20
2022-10-13T09:57:07.510Z,99645.60
2022-10-13T09:59:43.119Z,99642.00
2022-10-13T10:02:31.907Z,99639.00
2022-10-13T10:05:18.406Z,99635.20
2022-10-13T10:07:45.223Z,99631.60
2022-10-13T10:10:36.209Z,99621.20
2022-10-13T10:13:03.715Z,99612.60
2022-10-13T10:15:47.291Z,99614.00
2022-10-13T10:18:22.479Z,99610.20
2022-10-13T10:21:06.607Z,99606.60
2022-10-13T10:23:48.836Z,99600.40
2022-10-13T10:27:11.401Z,99590.40
2022-10-13T10:29:49.976Z,99588.00
2022-10-13T10:32:27.868Z,99588.00
2022-10-13T10:35:12.042Z,99577.80
2022-10-13T10:38:10.064Z,99579.00
2022-10-13T10:40:59.681Z,99573.40
2022-10-13T10:44:00.131Z,99576.40
2022-10-13T10:46:32.282Z,99571.20
2022-10-13T10:49:11.640Z,99578.60
2022-10-13T10:51:39.341Z,99578.60
2022-10-13T10:54:31.988Z,99579.40
2022-10-13T10:57:28.805Z,99585.40
2022-10-13T11:00:06.806Z,99574.40
2022-10-13T11:03:02.375Z,99575.60
2022-10-13T11:06:17.284Z,99568.80
2022-10-13T11:08:49.972Z,99551.00
2022-10-13T11:11:26.783Z,99550.20
2022-10-13T11:14:01.404Z,99548.20
2022-10-13T11:16:40.438Z,99549.40
2022-10-13T11:19:32.322Z,99545.20
2022-10-13T11:21:58.736Z,99541.80
2022-10-13T11:24:34.375Z,99544.40
2022-10-13T11:27:15.957Z,99539.40
2022-10-13T11:29:57.842Z,99538.40
2022-10-13T11:32:30.049Z,99538.40
2022-10-13T11:35:05.685Z,99538.80
2022-10-13T11:37:42.260Z,99541.40
2022-10-13T11:40:35.077Z,99530.60
2022-10-13T11:43:34.953Z,99533.00
2022-10-13T11:47:03.138Z,99528.20
2022-10-13T11:49:55.945Z,99520.20
2022-10-13T11:53:03.060Z,99519.80
2022-10-13T11:55:47.082Z,99520.60
2022-10-13T11:58:27.210Z,99513.60
2022-10-13T12:01:03.473Z,99510.80
2022-10-13T12:03:39.804Z,99506.40
2022-10-13T12:06:34.085Z,99504.40
2022-10-13T12:09:23.619Z,99500.60
2022-10-13T12:12:00.908Z,99497.60
2022-10-13T12:14:43.319Z,99490.00
2022-10-13T12:17:35.867Z,99493.00
2022-10-13T12:20:21.745Z,99490.80
2022-10-13T12:22:53.200Z,99490.80
2022-10-13T12:25:24.551Z,99492.20
2022-10-13T12:27:55.121Z,99483.40
2022-10-13T12:30:36.508Z,99480.20
2022-10-13T12:33:17.692Z,99474.20
2022-10-13T12:35:44.169Z,99473.80
2022-10-13T12:38:19.726Z,99470.00
2022-10-13T12:40:50.428Z,99465.20
2022-10-13T12:43:25.082Z,99460.20
2022-10-13T12:45:52.170Z,99453.60
2022-10-13T12:48:37.578Z,99454.80
2022-10-13T12:51:22.948Z,99451.80
2022-10-13T12:53:49.401Z,99452.60
2022-10-13T12:56:31.402Z,99449.00
2022-10-13T12:58:59.325Z,99448.40
2022-10-13T13:01:33.651Z,99444.00
2022-10-13T13:04:16.434Z,99444.60
2022-10-13T13:06:56.587Z,99445.00
2022-10-13T13:09:25.900Z,99444.00
2022-10-13T13:12:10.420Z,99448.40
2022-10-13T13:14:47.346Z,99450.40
2022-10-13T13:17:23.511Z,99447.40
2022-10-13T13:20:38.850Z,99445.80
2022-10-13T13:23:05.678Z,99442.00
2022-10-13T13:25:32.078Z,99435.00
2022-10-13T13:27:58.501Z,99434.20
2022-10-13T13:30:26.397Z,99436.80
2022-10-13T13:32:52.820Z,99427.80
2022-10-13T13:35:19.390Z,99425.40
2022-10-13T13:37:50.596Z,99425.20
2022-10-13T13:40:24.774Z,99429.60
2022-10-13T13:42:52.835Z,99420.40
2022-10-13T13:45:24.806Z,99420.40
2022-10-13T13:47:51.830Z,99414.80
2022-10-13T13:50:27.317Z,99417.40
2022-10-13T13:52:53.816Z,99424.00
2022-10-13T13:55:20.222Z,99422.80
2022-10-13T13:57:46.862Z,99422.20
2022-10-13T14:00:15.238Z,99418.80
2022-10-13T14:02:43.667Z,99414.80
2022-10-13T14:05:12.429Z,99411.20
2022-10-13T14:07:40.166Z,99405.00
2022-10-13T14:10:09.594Z,99402.00
2022-10-13T14:12:37.085Z,99399.40
2022-10-13T14:15:04.101Z,99399.40
2022-10-13T14:17:31.421Z,99400.40
2022-10-13T14:19:57.906Z,99400.80
2022-10-13T14:22:25.052Z,99402.20
2022-10-13T14:24:51.700Z,99402.20
2022-10-13T14:27:18.301Z,99395.40
2022-10-13T14:29:44.933Z,99400.80
2022-10-13T14:32:11.672Z,99399.40
2022-10-13T14:34:38.156Z,99395.80
2022-10-13T14:37:04.822Z,99398.00
2022-10-13T14:39:31.212Z,99394.80
2022-10-13T14:41:57.593Z,99398.40
2022-10-13T14:44:24.020Z,99392.20
2022-10-13T14:46:50.539Z,99389.20
2022-10-13T14:49:16.906Z,99387.80
2022-10-13T14:51:43.712Z,99391.40
2022-10-13T14:54:10.118Z,99394.40
2022-10-13T14:56:36.864Z,99392.40
2022-10-13T14:59:07.028Z,99390.20
2022-10-13T15:01:34.032Z,99385.40
2022-10-13T15:04:02.367Z,99384.40
2022-10-13T15:06:29.380Z,99387.40
2022-10-13T15:08:55.909Z,99393.80
2022-10-13T15:11:22.975Z,99389.40
2022-10-13T15:13:49.492Z,99393.60
2022-10-13T15:16:24.785Z,99399.00
2022-10-13T15:18:51.410Z,99402.00
2022-10-13T15:21:18.701Z,99397.40
2022-10-13T15:23:46.163Z,99393.60
2022-10-13T15:26:15.405Z,99396.40
2022-10-13T15:28:49.196Z,99388.40
2022-10-13T15:31:18.441Z,99393.40
2022-10-13T15:33:47.820Z,99396.60
2022-10-13T15:36:15.080Z,99395.00
2022-10-13T15:38:41.740Z,99396.80
2022-10-13T15:41:08.291Z,99397.80
2022-10-13T15:43:35.023Z,99398.40
2022-10-13T15:46:08.437Z,99401.20
2022-10-13T15:48:35.354Z,99391.80
2022-10-13T15:51:08.477Z,99392.60
2022-10-13T15:53:34.881Z,99394.60
2022-10-13T15:56:02.649Z,99389.40
2022-10-13T15:58:29.188Z,99387.00
2022-10-13T16:00:55.603Z,99385.80
2022-10-13T16:03:22.086Z,99382.20
2022-10-13T16:05:48.509Z,99383.00
2022-10-13T16:08:14.904Z,99377.20
2022-10-13T16:10:43.270Z,99375.20
2022-10-13T16:13:15.235Z,99380.60
2022-10-13T16:15:42.772Z,99380.60
2022-10-13T16:18:09.220Z,99382.80
2022-10-13T16:20:37.953Z,99380.60
2022-10-13T16:23:05.167Z,99382.60
2022-10-13T16:25:32.153Z,99379.20
2022-10-13T16:27:59.889Z,99383.20
2022-10-13T16:30:27.761Z,99384.40
2022-10-13T16:32:54.216Z,99383.60
2022-10-13T16:35:20.685Z,99379.00
2022-10-13T16:37:47.066Z,99380.80
2022-10-13T16:40:13.511Z,99379.40
2022-10-13T16:42:39.862Z,99378.60
2022-10-13T16:45:07.432Z,99381.00
2022-10-13T16:47:33.839Z,99381.40
2022-10-13T16:50:00.296Z,99373.20
2022-10-13T16:52:26.680Z,99379.60
2022-10-13T16:54:53.210Z,99368.60
2022-10-13T16:57:19.858Z,99364.40
2022-10-13T16:59:46.400Z,99370.80
2022-10-13T17:02:15.889Z,99365.20
2022-10-13T17:04:43.125Z,99368.80
2022-10-13T17:07:09.669Z,99368.80
2022-10-13T17:09:36.126Z,99365.20
2022-10-13T17:12:03.935Z,99367.40
2022-10-13T17:14:30.711Z,99364.80
2022-10-13T17:16:58.167Z,99362.20
2022-10-13T17:19:25.789Z,99362.40
2022-10-13T17:21:52.357Z,99364.20
2022-10-13T17:24:19.139Z,99365.20
2022-10-13T17:26:45.655Z,99360.60
2022-10-13T17:29:12.183Z,99363.60
2022-10-13T17:31:38.634Z,99363.20
2022-10-13T17:34:06.116Z,99362.60
2022-10-13T17:36:34.211Z,99363.40
2022-10-13T17:39:07.384Z,99359.80
2022-10-13T17:41:34.244Z,99361.40
2022-10-13T17:44:00.983Z,99358.40
2022-10-13T17:46:36.872Z,99358.80
2022-10-13T17:49:04.547Z,99356.40
2022-10-13T17:51:31.065Z,99355.80
2022-10-13T17:54:00.128Z,99356.20
2022-10-13T17:56:27.683Z,99349.00
2022-10-13T17:58:54.945Z,99348.40
2022-10-13T18:01:29.611Z,99351.20
2022-10-13T18:03:59.763Z,99351.40
2022-10-13T18:06:35.203Z,99350.60
2022-10-13T18:09:12.220Z,99347.00
2022-10-13T18:11:40.124Z,99348.40
2022-10-13T18:14:08.358Z,99350.20
2022-10-13T18:16:36.481Z,99346.00
2022-10-13T18:19:03.884Z,99342.80
2022-10-13T18:21:30.785Z,99343.80
2022-10-13T18:24:01.679Z,99344.00
2022-10-13T18:26:37.034Z,99343.20
2022-10-13T18:29:06.818Z,99345.60
2022-10-13T18:31:36.316Z,99349.00
2022-10-13T18:34:07.212Z,99350.60
2022-10-13T18:36:48.902Z,99351.80
2022-10-13T18:39:25.156Z,99350.00
2022-10-13T18:41:53.796Z,99350.00
2022-10-13T18:44:21.660Z,99347.80
2022-10-13T18:46:53.814Z,99350.80
2022-10-13T18:49:30.649Z,99353.20
2022-10-13T18:51:59.451Z,99347.80
2022-10-13T18:54:27.792Z,99342.60
2022-10-13T18:56:54.380Z,99349.40
2022-10-13T18:59:20.952Z,99349.60
2022-10-13T19:01:47.757Z,99346.60
2022-10-13T19:04:16.174Z,99348.00
2022-10-13T19:06:43.997Z,99342.80
2022-10-13T19:09:14.207Z,99345.60
2022-10-13T19:11:41.668Z,99344.40
2022-10-13T19:14:12.001Z,99340.40
2022-10-13T19:16:42.630Z,99341.20
2022-10-13T19:19:09.354Z,99338.40
2022-10-13T19:21:37.986Z,99339.40
2022-10-13T19:24:04.906Z,99336.00
2022-10-13T19:26:34.579Z,99338.20
2022-10-13T19:29:07.602Z,99338.20
2022-10-13T19:31:36.121Z,99339.40
2022-10-13T19:34:03.876Z,99335.20
2022-10-13T19:36:37.726Z,99338.40
2022-10-13T19:39:11.910Z,99330.20
2022-10-13T19:41:38.919Z,99327.00
2022-10-13T19:44:05.425Z,99325.00
2022-10-13T19:46:34.553Z,99323.00
2022-10-13T19:49:01.291Z,99324.80
2022-10-13T19:51:27.813Z,99320.80
2022-10-13T19:53:54.277Z,99319.20
2022-10-13T19:56:25.099Z,99322.40
2022-10-13T19:58:53.137Z,99327.00
2022-10-13T20:01:20.928Z,99323.40
2022-10-13T20:03:48.405Z,99322.20
2022-10-13T20:06:17.230Z,99323.00
2022-10-13T20:08:45.040Z,99320.60
2022-10-13T20:11:19.338Z,99318.20
2022-10-13T20:13:48.792Z,99315.40
2022-10-13T20:16:19.608Z,99309.20
2022-10-13T20:18:55.846Z,99311.00
2022-10-13T20:21:24.026Z,99311.40
2022-10-13T20:23:50.780Z,99314.00
2022-10-13T20:26:18.804Z,99315.40
2022-10-13T20:28:47.161Z,99310.60
2022-10-13T20:31:16.428Z,99311.00
2022-10-13T20:33:43.593Z,99309.00
2022-10-13T20:36:16.601Z,99308.00
2022-10-13T20:38:43.133Z,99308.20
2022-10-13T20:41:20.701Z,99308.20
2022-10-13T20:43:49.327Z,99309.60
2022-10-13T20:46:18.202Z,99307.00
2022-10-13T20:49:09.217Z,99310.20
2022-10-13T20:51:31.159Z,99306.00
2022-10-13T20:53:57.844Z,99309.40
2022-10-13T20:56:26.178Z,99307.60
2022-10-13T20:58:53.856Z,99305.00
2022-10-13T21:01:22.950Z,99303.00
2022-10-13T21:03:53.851Z,99296.60
2022-10-13T21:06:22.411Z,99295.20
2022-10-13T21:08:49.227Z,99294.40
2022-10-13T21:11:18.770Z,99293.40
2022-10-13T21:13:45.813Z,99296.00
2022-10-13T21:16:20.046Z,99292.60
2022-10-13T21:18:49.151Z,99292.60
2022-10-13T21:21:28.345Z,99286.40
2022-10-13T21:24:05.776Z,99286.00
2022-10-13T21:26:33.391Z,99292.00
2022-10-13T21:29:01.215Z,99288.20
2022-10-13T21:31:28.444Z,99291.80
2022-10-13T21:33:55.449Z,99295.20
2022-10-13T21:36:29.437Z,99287.80
2022-10-13T21:39:05.868Z,99286.80
2022-10-13T21:41:32.452Z,99288.80
2022-10-13T21:43:58.910Z,99291.20
2022-10-13T21:46:29.015Z,99286.20
2022-10-13T21:48:59.165Z,99282.80
2022-10-13T21:51:35.965Z,99284.40
2022-10-13T21:54:07.630Z,99281.20
2022-10-13T21:56:34.640Z,99276.00
2022-10-13T21:59:01.736Z,99275.60
2022-10-13T22:01:28.902Z,99269.80
2022-10-13T22:03:58.378Z,99269.00
2022-10-13T22:06:26.126Z,99269.80
2022-10-13T22:08:55.834Z,99268.60
2022-10-13T22:11:25.644Z,99269.60
2022-10-13T22:13:52.777Z,99263.00
2022-10-13T22:16:23.301Z,99259.20
2022-10-13T22:18:55.750Z,99267.00
2022-10-13T22:21:26.382Z,99262.00
2022-10-13T22:24:01.581Z,99262.20
2022-10-13T22:26:31.736Z,99260.80
2022-10-13T22:29:00.938Z,99259.80
2022-10-13T22:31:28.683Z,99257.20
2022-10-13T22:33:55.598Z,99250.00
2022-10-13T22:36:24.667Z,99251.60
2022-10-13T22:38:54.034Z,99246.80
2022-10-13T22:41:21.579Z,99242.20
2022-10-13T22:43:57.410Z,99245.40
2022-10-13T22:46:28.540Z,99241.20
2022-10-13T22:48:56.881Z,99241.40
2022-10-13T22:51:26.553Z,99242.20
2022-10-13T22:53:53.344Z,99241.80
2022-10-13T22:56:25.779Z,99242.60
2022-10-13T22:58:56.316Z,99240.80
2022-10-13T23:01:24.352Z,99241.80
2022-10-13T23:03:55.451Z,99235.80
2022-10-13T23:06:25.913Z,99235.20
2022-10-13T23:08:53.687Z,99237.20
2022-10-13T23:11:20.903Z,99235.40
2022-10-13T23:13:48.264Z,99234.20
2022-10-13T23:16:19.944Z,99236.20
2022-10-13T23:18:47.493Z,99231.80
2022-10-13T23:21:18.241Z,99232.00
2022-10-13T23:23:45.230Z,99234.20
2022-10-13T23:26:17.509Z,99230.60
2022-10-13T23:28:44.641Z,99230.20
2022-10-13T23:31:16.137Z,99229.60
2022-10-13T23:33:43.180Z,99232.60
2022-10-13T23:36:17.075Z,99226.40
2022-10-13T23:38:44.754Z,99225.80
2022-10-13T23:41:14.770Z,99223.00
2022-10-13T23:43:42.594Z,99220.60
2022-10-13T23:46:10.663Z,99224.60
2022-10-13T23:48:38.881Z,99223.60
2022-10-13T23:51:14.563Z,99222.00
2022-10-13T23:53:42.004Z,99219.60
2022-10-13T23:56:10.883Z,99225.00
2022-10-13T23:58:39.995Z,99220.60
